sensor_id;sensor_type;location;lat;lon;timestamp;temperature;humidity
15556;DHT22;7879;48.660;9.116;2024-02-26T00:01:14;4.40;99.90
15556;DHT22;7879;48.660;9.116;2024-02-26T00:03:41;4.40;99.90
15556;DHT22;7879;48.660;9.116;2024-02-26T00:06:09;4.30;99.90
15556;DHT22;7879;48.660;9.116;2024-02-26T00:08:36;4.40;99.90
15556;DHT22;7879;48.660;9.116;2024-02-26T00:11:03;4.40;99.90
15556;DHT22;7879;48.660;9.116;2024-02-26T00:13:30;4.30;99.90
15556;DHT22;7879;48.660;9.116;2024-02-26T00:15:57;4.40;99.90
15556;DHT22;7879;48.660;9.116;2024-02-26T00:18:24;4.30;99.90
15556;DHT22;7879;48.660;9.116;2024-02-26T00:20:51;4.30;99.90
15556;DHT22;7879;48.660;9.116;2024-02-26T00:23:18;4.30;99.90
15556;DHT22;7879;48.660;9.116;2024-02-26T00:25:45;4.30;99.90
15556;DHT22;7879;48.660;9.116;2024-02-26T00:28:13;4.30;99.90
15556;DHT22;7879;48.660;9.116;2024-02-26T00:30:40;4.20;99.90
15556;DHT22;7879;48.660;9.116;2024-02-26T00:33:07;4.30;99.90
15556;DHT22;7879;48.660;9.116;2024-02-26T00:35:34;4.30;99.90
15556;DHT22;7879;48.660;9.116;2024-02-26T00:38:01;4.30;99.90
15556;DHT22;7879;48.660;9.116;2024-02-26T00:40:30;4.40;99.90
15556;DHT22;7879;48.660;9.116;2024-02-26T00:42:57;4.40;99.90
15556;DHT22;7879;48.660;9.116;2024-02-26T00:45:23;4.40;99.90
15556;DHT22;7879;48.660;9.116;2024-02-26T00:47:50;4.40;99.90
15556;DHT22;7879;48.660;9.116;2024-02-26T00:50:17;4.30;99.90
15556;DHT22;7879;48.660;9.116;2024-02-26T00:52:44;4.30;99.90
15556;DHT22;7879;48.660;9.116;2024-02-26T00:55:11;4.30;99.90
15556;DHT22;7879;48.660;9.116;2024-02-26T00:57:38;4.30;99.90
15556;DHT22;7879;48.660;9.116;2024-02-26T01:00:07;4.30;99.90
15556;DHT22;7879;48.660;9.116;2024-02-26T01:02:38;4.30;99.90
15556;DHT22;7879;48.660;9.116;2024-02-26T01:05:06;4.30;99.90
15556;DHT22;7879;48.660;9.116;2024-02-26T01:07:33;4.30;99.90
15556;DHT22;7879;48.660;9.116;2024-02-26T01:10:03;4.30;99.90
15556;DHT22;7879;48.660;9.116;2024-02-26T01:12:32;4.30;99.90
15556;DHT22;7879;48.660;9.116;2024-02-26T01:15:01;4.30;99.90
15556;DHT22;7879;48.660;9.116;2024-02-26T01:17:30;4.30;99.90
15556;DHT22;7879;48.660;9.116;2024-02-26T01:19:57;4.30;99.90
15556;DHT22;7879;48.660;9.116;2024-02-26T01:22:24;4.30;99.90
15556;DHT22;7879;48.660;9.116;2024-02-26T01:24:50;4.30;99.90
15556;DHT22;7879;48.660;9.116;2024-02-26T01:27:17;4.40;99.90
15556;DHT22;7879;48.660;9.116;2024-02-26T01:29:45;4.40;99.90
15556;DHT22;7879;48.660;9.116;2024-02-26T01:32:12;4.40;99.90
15556;DHT22;7879;48.660;9.116;2024-02-26T01:34:39;4.40;99.90
15556;DHT22;7879;48.660;9.116;2024-02-26T01:37:06;4.40;99.90
15556;DHT22;7879;48.660;9.116;2024-02-26T01:39:33;4.40;99.90
15556;DHT22;7879;48.660;9.116;2024-02-26T01:42:00;4.40;99.90
15556;DHT22;7879;48.660;9.116;2024-02-26T01:44:28;4.30;99.90
15556;DHT22;7879;48.660;9.116;2024-02-26T01:46:55;4.30;99.90
15556;DHT22;7879;48.660;9.116;2024-02-26T01:49:22;4.30;99.90
15556;DHT22;7879;48.660;9.116;2024-02-26T01:51:50;4.30;99.90
15556;DHT22;7879;48.660;9.116;2024-02-26T01:54:17;4.30;99.90
15556;DHT22;7879;48.660;9.116;2024-02-26T01:56:44;4.30;99.90
15556;DHT22;7879;48.660;9.116;2024-02-26T01:59:11;4.30;99.90
15556;DHT22;7879;48.660;9.116;2024-02-26T02:01:39;4.30;99.90
15556;DHT22;7879;48.660;9.116;2024-02-26T02:04:09;4.30;99.90
15556;DHT22;7879;48.660;9.116;2024-02-26T02:06:36;4.20;99.90
15556;DHT22;7879;48.660;9.116;2024-02-26T02:09:04;4.30;99.90
15556;DHT22;7879;48.660;9.116;2024-02-26T02:11:33;4.30;99.90
15556;DHT22;7879;48.660;9.116;2024-02-26T02:14:01;4.30;99.90
15556;DHT22;7879;48.660;9.116;2024-02-26T02:16:28;4.30;99.90
15556;DHT22;7879;48.660;9.116;2024-02-26T02:18:54;4.40;99.90
15556;DHT22;7879;48.660;9.116;2024-02-26T02:21:21;4.40;99.90
15556;DHT22;7879;48.660;9.116;2024-02-26T02:23:48;4.40;99.90
15556;DHT22;7879;48.660;9.116;2024-02-26T02:26:16;4.50;99.90
15556;DHT22;7879;48.660;9.116;2024-02-26T02:28:44;4.50;99.90
15556;DHT22;7879;48.660;9.116;2024-02-26T02:31:12;4.50;99.90
15556;DHT22;7879;48.660;9.116;2024-02-26T02:33:39;4.60;99.90
15556;DHT22;7879;48.660;9.116;2024-02-26T02:36:06;4.60;99.90
15556;DHT22;7879;48.660;9.116;2024-02-26T02:38:37;4.60;99.90
15556;DHT22;7879;48.660;9.116;2024-02-26T02:41:04;4.60;99.90
15556;DHT22;7879;48.660;9.116;2024-02-26T02:43:31;4.60;99.90
15556;DHT22;7879;48.660;9.116;2024-02-26T02:45:58;4.60;99.90
15556;DHT22;7879;48.660;9.116;2024-02-26T02:48:25;4.60;99.90
15556;DHT22;7879;48.660;9.116;2024-02-26T02:50:52;4.60;99.90
15556;DHT22;7879;48.660;9.116;2024-02-26T02:53:19;4.60;99.90
15556;DHT22;7879;48.660;9.116;2024-02-26T02:55:46;4.60;99.90
15556;DHT22;7879;48.660;9.116;2024-02-26T02:58:13;4.60;99.90
15556;DHT22;7879;48.660;9.116;2024-02-26T03:00:40;4.60;99.90
15556;DHT22;7879;48.660;9.116;2024-02-26T03:03:07;4.60;99.90
15556;DHT22;7879;48.660;9.116;2024-02-26T03:05:34;4.60;99.90
15556;DHT22;7879;48.660;9.116;2024-02-26T03:08:01;4.60;99.90
15556;DHT22;7879;48.660;9.116;2024-02-26T03:10:27;4.70;99.90
15556;DHT22;7879;48.660;9.116;2024-02-26T03:12:54;4.70;99.90
15556;DHT22;7879;48.660;9.116;2024-02-26T03:15:23;4.70;99.90
15556;DHT22;7879;48.660;9.116;2024-02-26T03:17:49;4.70;99.90
15556;DHT22;7879;48.660;9.116;2024-02-26T03:20:17;4.70;99.90
15556;DHT22;7879;48.660;9.116;2024-02-26T03:22:45;4.70;99.90
15556;DHT22;7879;48.660;9.116;2024-02-26T03:25:12;4.70;99.90
15556;DHT22;7879;48.660;9.116;2024-02-26T03:27:39;4.70;99.90
15556;DHT22;7879;48.660;9.116;2024-02-26T03:30:07;4.70;99.90
15556;DHT22;7879;48.660;9.116;2024-02-26T03:32:34;4.70;99.90
15556;DHT22;7879;48.660;9.116;2024-02-26T03:35:00;4.70;99.90
15556;DHT22;7879;48.660;9.116;2024-02-26T03:37:27;4.70;99.90
15556;DHT22;7879;48.660;9.116;2024-02-26T03:39:54;4.70;99.90
15556;DHT22;7879;48.660;9.116;2024-02-26T03:42:21;4.70;99.90
15556;DHT22;7879;48.660;9.116;2024-02-26T03:44:48;4.70;99.90
15556;DHT22;7879;48.660;9.116;2024-02-26T03:47:16;4.70;99.90
15556;DHT22;7879;48.660;9.116;2024-02-26T03:49:43;4.70;99.90
15556;DHT22;7879;48.660;9.116;2024-02-26T03:52:10;4.70;99.90
15556;DHT22;7879;48.660;9.116;2024-02-26T03:54:37;4.70;99.90
15556;DHT22;7879;48.660;9.116;2024-02-26T03:57:04;4.80;99.90
15556;DHT22;7879;48.660;9.116;2024-02-26T03:59:31;4.80;99.90
15556;DHT22;7879;48.660;9.116;2024-02-26T04:01:58;4.80;99.90
15556;DHT22;7879;48.660;9.116;2024-02-26T04:04:25;4.80;99.90
15556;DHT22;7879;48.660;9.116;2024-02-26T04:06:52;4.80;99.90
15556;DHT22;7879;48.660;9.116;2024-02-26T04:09:19;4.80;99.90
15556;DHT22;7879;48.660;9.116;2024-02-26T04:11:46;4.80;99.90
15556;DHT22;7879;48.660;9.116;2024-02-26T04:14:13;4.80;99.90
15556;DHT22;7879;48.660;9.116;2024-02-26T04:16:39;4.90;99.90
15556;DHT22;7879;48.660;9.116;2024-02-26T04:19:06;5.00;99.90
15556;DHT22;7879;48.660;9.116;2024-02-26T04:21:34;5.10;99.90
15556;DHT22;7879;48.660;9.116;2024-02-26T04:24:02;5.10;99.90
15556;DHT22;7879;48.660;9.116;2024-02-26T04:26:30;5.10;99.90
15556;DHT22;7879;48.660;9.116;2024-02-26T04:28:57;5.10;99.90
15556;DHT22;7879;48.660;9.116;2024-02-26T04:31:24;5.10;99.90
15556;DHT22;7879;48.660;9.116;2024-02-26T04:33:51;5.10;99.90
15556;DHT22;7879;48.660;9.116;2024-02-26T04:36:18;5.10;99.90
15556;DHT22;7879;48.660;9.116;2024-02-26T04:38:45;5.10;99.90
15556;DHT22;7879;48.660;9.116;2024-02-26T04:41:12;5.10;99.90
15556;DHT22;7879;48.660;9.116;2024-02-26T04:43:39;5.10;99.90
15556;DHT22;7879;48.660;9.116;2024-02-26T04:46:08;5.10;99.90
15556;DHT22;7879;48.660;9.116;2024-02-26T04:48:38;5.10;99.90
15556;DHT22;7879;48.660;9.116;2024-02-26T04:51:06;5.10;99.90
15556;DHT22;7879;48.660;9.116;2024-02-26T04:53:33;5.20;99.90
15556;DHT22;7879;48.660;9.116;2024-02-26T04:55:59;5.10;99.90
15556;DHT22;7879;48.660;9.116;2024-02-26T04:58:26;5.10;99.90
15556;DHT22;7879;48.660;9.116;2024-02-26T05:00:53;5.10;99.90
15556;DHT22;7879;48.660;9.116;2024-02-26T05:03:20;5.10;99.90
15556;DHT22;7879;48.660;9.116;2024-02-26T05:05:47;5.10;99.90
15556;DHT22;7879;48.660;9.116;2024-02-26T05:08:14;5.10;99.90
15556;DHT22;7879;48.660;9.116;2024-02-26T05:10:41;5.10;99.90
15556;DHT22;7879;48.660;9.116;2024-02-26T05:13:10;5.00;99.90
15556;DHT22;7879;48.660;9.116;2024-02-26T05:15:37;5.00;99.90
15556;DHT22;7879;48.660;9.116;2024-02-26T05:18:04;5.00;99.90
15556;DHT22;7879;48.660;9.116;2024-02-26T05:20:31;5.00;99.90
15556;DHT22;7879;48.660;9.116;2024-02-26T05:23:01;5.00;99.90
15556;DHT22;7879;48.660;9.116;2024-02-26T05:25:30;5.00;99.90
15556;DHT22;7879;48.660;9.116;2024-02-26T05:27:58;4.90;99.90
15556;DHT22;7879;48.660;9.116;2024-02-26T05:30:25;4.90;99.90
15556;DHT22;7879;48.660;9.116;2024-02-26T05:32:54;4.90;99.90
15556;DHT22;7879;48.660;9.116;2024-02-26T05:35:21;4.90;99.90
15556;DHT22;7879;48.660;9.116;2024-02-26T05:37:48;4.90;99.90
15556;DHT22;7879;48.660;9.116;2024-02-26T05:40:15;4.90;99.90
15556;DHT22;7879;48.660;9.116;2024-02-26T05:42:42;4.80;99.90
15556;DHT22;7879;48.660;9.116;2024-02-26T05:45:11;4.90;99.90
15556;DHT22;7879;48.660;9.116;2024-02-26T05:47:38;4.80;99.90
15556;DHT22;7879;48.660;9.116;2024-02-26T05:50:12;4.80;99.90
15556;DHT22;7879;48.660;9.116;2024-02-26T05:52:40;4.80;99.90
15556;DHT22;7879;48.660;9.116;2024-02-26T05:55:07;4.80;99.90
15556;DHT22;7879;48.660;9.116;2024-02-26T05:57:35;4.80;99.90
15556;DHT22;7879;48.660;9.116;2024-02-26T06:00:02;4.70;99.90
15556;DHT22;7879;48.660;9.116;2024-02-26T06:02:33;4.70;99.90
15556;DHT22;7879;48.660;9.116;2024-02-26T06:05:00;4.70;99.90
15556;DHT22;7879;48.660;9.116;2024-02-26T06:07:27;4.60;99.90
15556;DHT22;7879;48.660;9.116;2024-02-26T06:09:54;4.60;99.90
15556;DHT22;7879;48.660;9.116;2024-02-26T06:12:21;4.50;99.90
15556;DHT22;7879;48.660;9.116;2024-02-26T06:14:48;4.50;99.90
15556;DHT22;7879;48.660;9.116;2024-02-26T06:17:15;4.50;99.90
15556;DHT22;7879;48.660;9.116;2024-02-26T06:19:43;4.50;99.90
15556;DHT22;7879;48.660;9.116;2024-02-26T06:22:10;4.50;99.90
15556;DHT22;7879;48.660;9.116;2024-02-26T06:24:37;4.50;99.90
15556;DHT22;7879;48.660;9.116;2024-02-26T06:27:04;4.50;99.90
15556;DHT22;7879;48.660;9.116;2024-02-26T06:29:31;4.50;99.90
15556;DHT22;7879;48.660;9.116;2024-02-26T06:31:58;4.50;99.90
15556;DHT22;7879;48.660;9.116;2024-02-26T06:34:25;4.40;99.90
15556;DHT22;7879;48.660;9.116;2024-02-26T06:36:52;4.40;99.90
15556;DHT22;7879;48.660;9.116;2024-02-26T06:39:19;4.40;99.90
15556;DHT22;7879;48.660;9.116;2024-02-26T06:41:46;4.40;99.90
15556;DHT22;7879;48.660;9.116;2024-02-26T06:44:13;4.40;99.90
15556;DHT22;7879;48.660;9.116;2024-02-26T06:46:41;4.40;99.90
15556;DHT22;7879;48.660;9.116;2024-02-26T06:49:08;4.40;99.90
15556;DHT22;7879;48.660;9.116;2024-02-26T06:51:35;4.40;99.90
15556;DHT22;7879;48.660;9.116;2024-02-26T06:54:02;4.50;99.90
15556;DHT22;7879;48.660;9.116;2024-02-26T06:56:29;4.40;99.90
15556;DHT22;7879;48.660;9.116;2024-02-26T06:58:56;4.50;99.90
15556;DHT22;7879;48.660;9.116;2024-02-26T07:01:23;4.50;99.90
15556;DHT22;7879;48.660;9.116;2024-02-26T07:03:50;4.50;99.90
15556;DHT22;7879;48.660;9.116;2024-02-26T07:06:17;4.50;99.90
15556;DHT22;7879;48.660;9.116;2024-02-26T07:08:44;4.50;99.90
15556;DHT22;7879;48.660;9.116;2024-02-26T07:11:11;4.60;99.90
15556;DHT22;7879;48.660;9.116;2024-02-26T07:13:39;4.60;99.90
15556;DHT22;7879;48.660;9.116;2024-02-26T07:16:29;4.60;99.90
15556;DHT22;7879;48.660;9.116;2024-02-26T07:18:59;4.60;99.90
15556;DHT22;7879;48.660;9.116;2024-02-26T07:21:26;4.70;99.90
15556;DHT22;7879;48.660;9.116;2024-02-26T07:23:53;4.70;99.90
15556;DHT22;7879;48.660;9.116;2024-02-26T07:26:20;4.70;99.90
15556;DHT22;7879;48.660;9.116;2024-02-26T07:28:47;4.70;99.90
15556;DHT22;7879;48.660;9.116;2024-02-26T07:31:14;4.70;99.90
15556;DHT22;7879;48.660;9.116;2024-02-26T07:33:41;4.80;99.90
15556;DHT22;7879;48.660;9.116;2024-02-26T07:36:08;4.80;99.90
15556;DHT22;7879;48.660;9.116;2024-02-26T07:38:35;4.80;99.90
15556;DHT22;7879;48.660;9.116;2024-02-26T07:41:09;4.80;99.90
15556;DHT22;7879;48.660;9.116;2024-02-26T07:43:37;4.90;99.90
15556;DHT22;7879;48.660;9.116;2024-02-26T07:46:03;4.90;99.90
15556;DHT22;7879;48.660;9.116;2024-02-26T07:48:30;4.90;99.90
15556;DHT22;7879;48.660;9.116;2024-02-26T07:50:58;5.00;99.90
15556;DHT22;7879;48.660;9.116;2024-02-26T07:53:27;5.00;99.90
15556;DHT22;7879;48.660;9.116;2024-02-26T07:55:53;5.10;99.90
15556;DHT22;7879;48.660;9.116;2024-02-26T07:58:23;5.10;99.90
15556;DHT22;7879;48.660;9.116;2024-02-26T08:00:50;5.10;99.90
15556;DHT22;7879;48.660;9.116;2024-02-26T08:03:17;5.20;99.90
15556;DHT22;7879;48.660;9.116;2024-02-26T08:05:44;5.20;99.90
15556;DHT22;7879;48.660;9.116;2024-02-26T08:08:11;5.20;99.90
15556;DHT22;7879;48.660;9.116;2024-02-26T08:10:38;5.30;99.90
15556;DHT22;7879;48.660;9.116;2024-02-26T08:13:05;5.40;99.90
15556;DHT22;7879;48.660;9.116;2024-02-26T08:15:33;5.40;99.90
15556;DHT22;7879;48.660;9.116;2024-02-26T08:18:04;5.50;99.90
15556;DHT22;7879;48.660;9.116;2024-02-26T08:20:32;5.60;99.90
15556;DHT22;7879;48.660;9.116;2024-02-26T08:22:59;5.60;99.90
15556;DHT22;7879;48.660;9.116;2024-02-26T08:25:26;5.60;99.90
15556;DHT22;7879;48.660;9.116;2024-02-26T08:27:53;5.70;99.90
15556;DHT22;7879;48.660;9.116;2024-02-26T08:30:20;5.80;99.90
15556;DHT22;7879;48.660;9.116;2024-02-26T08:32:48;5.90;99.90
15556;DHT22;7879;48.660;9.116;2024-02-26T08:35:19;5.90;99.90
15556;DHT22;7879;48.660;9.116;2024-02-26T08:37:47;6.00;99.90
15556;DHT22;7879;48.660;9.116;2024-02-26T08:40:15;6.10;99.90
15556;DHT22;7879;48.660;9.116;2024-02-26T08:42:42;6.10;99.90
15556;DHT22;7879;48.660;9.116;2024-02-26T08:45:09;6.20;99.90
15556;DHT22;7879;48.660;9.116;2024-02-26T08:47:37;6.30;99.90
15556;DHT22;7879;48.660;9.116;2024-02-26T08:50:05;6.30;99.90
15556;DHT22;7879;48.660;9.116;2024-02-26T08:52:32;6.30;99.90
15556;DHT22;7879;48.660;9.116;2024-02-26T08:54:59;6.40;99.90
15556;DHT22;7879;48.660;9.116;2024-02-26T08:57:26;6.40;99.90
15556;DHT22;7879;48.660;9.116;2024-02-26T08:59:54;6.40;99.90
15556;DHT22;7879;48.660;9.116;2024-02-26T09:02:22;6.50;99.90
15556;DHT22;7879;48.660;9.116;2024-02-26T09:04:49;6.50;99.90
15556;DHT22;7879;48.660;9.116;2024-02-26T09:07:20;6.50;99.90
15556;DHT22;7879;48.660;9.116;2024-02-26T09:09:48;6.50;99.90
15556;DHT22;7879;48.660;9.116;2024-02-26T09:12:17;6.50;99.90
15556;DHT22;7879;48.660;9.116;2024-02-26T09:14:44;6.50;99.90
15556;DHT22;7879;48.660;9.116;2024-02-26T09:17:12;6.60;99.90
15556;DHT22;7879;48.660;9.116;2024-02-26T09:19:39;6.60;99.90
15556;DHT22;7879;48.660;9.116;2024-02-26T09:22:06;6.60;99.90
15556;DHT22;7879;48.660;9.116;2024-02-26T09:24:33;6.60;99.90
15556;DHT22;7879;48.660;9.116;2024-02-26T09:27:00;6.60;99.90
15556;DHT22;7879;48.660;9.116;2024-02-26T09:29:27;6.70;99.90
15556;DHT22;7879;48.660;9.116;2024-02-26T09:31:55;6.70;99.90
15556;DHT22;7879;48.660;9.116;2024-02-26T09:34:22;6.80;99.90
15556;DHT22;7879;48.660;9.116;2024-02-26T09:36:49;6.80;99.90
15556;DHT22;7879;48.660;9.116;2024-02-26T09:39:16;6.80;99.90
15556;DHT22;7879;48.660;9.116;2024-02-26T09:41:48;6.80;99.90
15556;DHT22;7879;48.660;9.116;2024-02-26T09:44:18;6.80;99.90
15556;DHT22;7879;48.660;9.116;2024-02-26T09:46:48;6.90;99.90
15556;DHT22;7879;48.660;9.116;2024-02-26T09:49:19;7.00;99.90
15556;DHT22;7879;48.660;9.116;2024-02-26T09:51:49;7.10;99.90
15556;DHT22;7879;48.660;9.116;2024-02-26T09:54:17;7.20;99.90
15556;DHT22;7879;48.660;9.116;2024-02-26T09:56:46;7.40;99.90
15556;DHT22;7879;48.660;9.116;2024-02-26T09:59:29;7.50;99.90
15556;DHT22;7879;48.660;9.116;2024-02-26T10:02:00;7.60;99.90
15556;DHT22;7879;48.660;9.116;2024-02-26T10:04:28;7.80;99.90
15556;DHT22;7879;48.660;9.116;2024-02-26T10:06:56;8.00;99.90
15556;DHT22;7879;48.660;9.116;2024-02-26T10:09:23;8.20;99.90
15556;DHT22;7879;48.660;9.116;2024-02-26T10:11:51;8.40;99.90
15556;DHT22;7879;48.660;9.116;2024-02-26T10:14:18;8.50;99.90
15556;DHT22;7879;48.660;9.116;2024-02-26T10:16:45;8.60;99.90
15556;DHT22;7879;48.660;9.116;2024-02-26T10:19:30;8.80;99.90
15556;DHT22;7879;48.660;9.116;2024-02-26T10:22:03;8.80;99.90
15556;DHT22;7879;48.660;9.116;2024-02-26T10:24:31;8.80;99.90
15556;DHT22;7879;48.660;9.116;2024-02-26T10:26:58;8.90;99.90
15556;DHT22;7879;48.660;9.116;2024-02-26T10:29:25;8.80;99.90
15556;DHT22;7879;48.660;9.116;2024-02-26T10:31:52;8.80;99.90
15556;DHT22;7879;48.660;9.116;2024-02-26T10:34:20;8.80;99.90
15556;DHT22;7879;48.660;9.116;2024-02-26T10:36:48;8.80;99.90
15556;DHT22;7879;48.660;9.116;2024-02-26T10:39:20;8.70;99.90
15556;DHT22;7879;48.660;9.116;2024-02-26T10:41:49;8.70;99.90
15556;DHT22;7879;48.660;9.116;2024-02-26T10:44:16;8.60;99.90
15556;DHT22;7879;48.660;9.116;2024-02-26T10:46:47;8.70;99.90
15556;DHT22;7879;48.660;9.116;2024-02-26T10:49:17;8.70;99.90
15556;DHT22;7879;48.660;9.116;2024-02-26T10:51:56;8.70;99.90
15556;DHT22;7879;48.660;9.116;2024-02-26T10:54:26;8.80;99.90
15556;DHT22;7879;48.660;9.116;2024-02-26T10:56:56;8.80;99.90
15556;DHT22;7879;48.660;9.116;2024-02-26T10:59:24;8.80;99.90
15556;DHT22;7879;48.660;9.116;2024-02-26T11:01:52;8.80;99.90
15556;DHT22;7879;48.660;9.116;2024-02-26T11:04:20;8.90;99.90
15556;DHT22;7879;48.660;9.116;2024-02-26T11:06:49;8.90;99.90
15556;DHT22;7879;48.660;9.116;2024-02-26T11:09:17;9.00;99.90
15556;DHT22;7879;48.660;9.116;2024-02-26T11:11:47;9.10;99.90
15556;DHT22;7879;48.660;9.116;2024-02-26T11:14:15;9.20;99.90
15556;DHT22;7879;48.660;9.116;2024-02-26T11:16:47;9.30;99.90
15556;DHT22;7879;48.660;9.116;2024-02-26T11:19:16;9.40;99.90
15556;DHT22;7879;48.660;9.116;2024-02-26T11:21:44;9.40;99.90
15556;DHT22;7879;48.660;9.116;2024-02-26T11:24:13;9.40;99.90
15556;DHT22;7879;48.660;9.116;2024-02-26T11:26:50;9.50;99.90
15556;DHT22;7879;48.660;9.116;2024-02-26T11:29:23;9.50;99.90
15556;DHT22;7879;48.660;9.116;2024-02-26T11:31:51;9.50;99.90
15556;DHT22;7879;48.660;9.116;2024-02-26T11:34:19;9.50;99.90
15556;DHT22;7879;48.660;9.116;2024-02-26T11:36:47;9.50;99.90
15556;DHT22;7879;48.660;9.116;2024-02-26T11:39:14;9.50;99.90
15556;DHT22;7879;48.660;9.116;2024-02-26T11:41:44;9.50;99.90
15556;DHT22;7879;48.660;9.116;2024-02-26T11:44:11;9.50;99.90
15556;DHT22;7879;48.660;9.116;2024-02-26T11:46:42;9.50;99.90
15556;DHT22;7879;48.660;9.116;2024-02-26T11:51:56;9.50;99.90
15556;DHT22;7879;48.660;9.116;2024-02-26T11:54:48;9.60;99.90
15556;DHT22;7879;48.660;9.116;2024-02-26T11:59:53;9.60;99.90
15556;DHT22;7879;48.660;9.116;2024-02-26T12:02:40;9.70;99.90
15556;DHT22;7879;48.660;9.116;2024-02-26T12:05:19;9.80;99.90
15556;DHT22;7879;48.660;9.116;2024-02-26T12:08:08;9.80;99.90
15556;DHT22;7879;48.660;9.116;2024-02-26T12:10:39;9.90;99.90
15556;DHT22;7879;48.660;9.116;2024-02-26T12:13:11;9.90;99.90
15556;DHT22;7879;48.660;9.116;2024-02-26T12:15:55;9.90;99.90
15556;DHT22;7879;48.660;9.116;2024-02-26T12:18:27;9.90;99.90
15556;DHT22;7879;48.660;9.116;2024-02-26T12:21:03;10.00;99.90
15556;DHT22;7879;48.660;9.116;2024-02-26T12:23:31;10.10;99.90
15556;DHT22;7879;48.660;9.116;2024-02-26T12:26:00;10.10;99.90
15556;DHT22;7879;48.660;9.116;2024-02-26T12:28:32;10.10;99.90
15556;DHT22;7879;48.660;9.116;2024-02-26T12:30:59;10.10;99.90
15556;DHT22;7879;48.660;9.116;2024-02-26T12:33:27;10.10;99.90
15556;DHT22;7879;48.660;9.116;2024-02-26T12:35:56;10.20;99.90
15556;DHT22;7879;48.660;9.116;2024-02-26T12:38:27;10.30;99.90
15556;DHT22;7879;48.660;9.116;2024-02-26T12:40:54;10.30;99.90
15556;DHT22;7879;48.660;9.116;2024-02-26T12:43:21;10.40;99.90
15556;DHT22;7879;48.660;9.116;2024-02-26T12:45:48;10.50;99.90
15556;DHT22;7879;48.660;9.116;2024-02-26T12:48:15;10.60;99.90
15556;DHT22;7879;48.660;9.116;2024-02-26T12:50:46;10.50;99.90
15556;DHT22;7879;48.660;9.116;2024-02-26T12:53:16;10.60;99.90
15556;DHT22;7879;48.660;9.116;2024-02-26T12:55:43;10.60;99.90
15556;DHT22;7879;48.660;9.116;2024-02-26T12:58:12;10.60;99.90
15556;DHT22;7879;48.660;9.116;2024-02-26T13:00:39;10.60;99.90
15556;DHT22;7879;48.660;9.116;2024-02-26T13:03:09;10.70;99.90
15556;DHT22;7879;48.660;9.116;2024-02-26T13:05:36;10.70;99.90
15556;DHT22;7879;48.660;9.116;2024-02-26T13:08:04;10.80;99.90
15556;DHT22;7879;48.660;9.116;2024-02-26T13:10:35;10.70;99.90
15556;DHT22;7879;48.660;9.116;2024-02-26T13:13:02;10.80;99.90
15556;DHT22;7879;48.660;9.116;2024-02-26T13:15:30;10.80;99.90
15556;DHT22;7879;48.660;9.116;2024-02-26T13:17:57;10.80;99.90
15556;DHT22;7879;48.660;9.116;2024-02-26T13:20:26;10.90;99.90
15556;DHT22;7879;48.660;9.116;2024-02-26T13:23:05;10.90;99.90
15556;DHT22;7879;48.660;9.116;2024-02-26T13:25:34;10.90;99.90
15556;DHT22;7879;48.660;9.116;2024-02-26T13:28:18;11.00;99.90
15556;DHT22;7879;48.660;9.116;2024-02-26T13:30:56;11.10;99.90
15556;DHT22;7879;48.660;9.116;2024-02-26T13:33:25;11.10;99.90
15556;DHT22;7879;48.660;9.116;2024-02-26T13:35:55;11.10;99.90
15556;DHT22;7879;48.660;9.116;2024-02-26T13:38:23;11.10;99.90
15556;DHT22;7879;48.660;9.116;2024-02-26T13:40:50;11.20;99.90
15556;DHT22;7879;48.660;9.116;2024-02-26T13:43:21;11.30;99.90
15556;DHT22;7879;48.660;9.116;2024-02-26T13:45:50;11.30;99.90
15556;DHT22;7879;48.660;9.116;2024-02-26T13:48:20;11.40;99.90
15556;DHT22;7879;48.660;9.116;2024-02-26T13:50:47;11.40;99.90
15556;DHT22;7879;48.660;9.116;2024-02-26T13:53:14;11.40;99.90
15556;DHT22;7879;48.660;9.116;2024-02-26T13:55:41;11.40;99.90
15556;DHT22;7879;48.660;9.116;2024-02-26T13:58:25;11.40;99.90
15556;DHT22;7879;48.660;9.116;2024-02-26T14:00:54;11.50;99.90
15556;DHT22;7879;48.660;9.116;2024-02-26T14:03:21;11.50;99.90
15556;DHT22;7879;48.660;9.116;2024-02-26T14:05:48;11.60;99.90
15556;DHT22;7879;48.660;9.116;2024-02-26T14:08:16;11.60;99.90
15556;DHT22;7879;48.660;9.116;2024-02-26T14:10:43;11.60;99.90
15556;DHT22;7879;48.660;9.116;2024-02-26T14:13:11;11.60;99.90
15556;DHT22;7879;48.660;9.116;2024-02-26T14:15:38;11.60;99.90
15556;DHT22;7879;48.660;9.116;2024-02-26T14:18:07;11.60;99.90
15556;DHT22;7879;48.660;9.116;2024-02-26T14:20:35;11.60;99.90
15556;DHT22;7879;48.660;9.116;2024-02-26T14:23:02;11.60;99.90
15556;DHT22;7879;48.660;9.116;2024-02-26T14:25:29;11.70;99.90
15556;DHT22;7879;48.660;9.116;2024-02-26T14:27:58;11.70;99.90
15556;DHT22;7879;48.660;9.116;2024-02-26T14:30:26;11.80;99.90
15556;DHT22;7879;48.660;9.116;2024-02-26T14:32:53;11.70;99.90
15556;DHT22;7879;48.660;9.116;2024-02-26T14:35:21;11.80;99.90
15556;DHT22;7879;48.660;9.116;2024-02-26T14:37:49;11.80;99.90
15556;DHT22;7879;48.660;9.116;2024-02-26T14:40:17;11.70;99.90
15556;DHT22;7879;48.660;9.116;2024-02-26T14:42:44;11.70;99.90
15556;DHT22;7879;48.660;9.116;2024-02-26T14:45:12;11.70;99.90
15556;DHT22;7879;48.660;9.116;2024-02-26T14:47:39;11.70;99.90
15556;DHT22;7879;48.660;9.116;2024-02-26T14:50:07;11.70;99.90
15556;DHT22;7879;48.660;9.116;2024-02-26T14:52:34;11.80;99.90
15556;DHT22;7879;48.660;9.116;2024-02-26T14:55:01;11.80;99.90
15556;DHT22;7879;48.660;9.116;2024-02-26T14:57:28;11.80;99.90
15556;DHT22;7879;48.660;9.116;2024-02-26T14:59:55;11.80;99.90
15556;DHT22;7879;48.660;9.116;2024-02-26T15:02:22;11.70;99.90
15556;DHT22;7879;48.660;9.116;2024-02-26T15:04:49;11.70;99.90
15556;DHT22;7879;48.660;9.116;2024-02-26T15:07:16;11.70;99.90
15556;DHT22;7879;48.660;9.116;2024-02-26T15:09:43;11.70;99.90
15556;DHT22;7879;48.660;9.116;2024-02-26T15:12:10;11.70;99.90
15556;DHT22;7879;48.660;9.116;2024-02-26T15:14:38;11.70;99.90
15556;DHT22;7879;48.660;9.116;2024-02-26T15:17:05;11.70;99.90
15556;DHT22;7879;48.660;9.116;2024-02-26T15:19:37;11.70;99.90
15556;DHT22;7879;48.660;9.116;2024-02-26T15:22:05;11.60;99.90
15556;DHT22;7879;48.660;9.116;2024-02-26T15:24:32;11.60;99.90
15556;DHT22;7879;48.660;9.116;2024-02-26T15:26:59;11.60;99.90
15556;DHT22;7879;48.660;9.116;2024-02-26T15:29:26;11.60;99.90
15556;DHT22;7879;48.660;9.116;2024-02-26T15:31:53;11.60;99.90
15556;DHT22;7879;48.660;9.116;2024-02-26T15:34:21;11.50;99.90
15556;DHT22;7879;48.660;9.116;2024-02-26T15:36:48;11.50;99.90
15556;DHT22;7879;48.660;9.116;2024-02-26T15:39:15;11.50;99.90
15556;DHT22;7879;48.660;9.116;2024-02-26T15:41:42;11.50;99.90
15556;DHT22;7879;48.660;9.116;2024-02-26T15:44:09;11.50;99.90
15556;DHT22;7879;48.660;9.116;2024-02-26T15:46:42;11.40;99.90
15556;DHT22;7879;48.660;9.116;2024-02-26T15:49:09;11.40;99.90
15556;DHT22;7879;48.660;9.116;2024-02-26T15:51:40;11.40;99.90
15556;DHT22;7879;48.660;9.116;2024-02-26T15:54:07;11.40;99.90
15556;DHT22;7879;48.660;9.116;2024-02-26T15:56:36;11.40;99.90
15556;DHT22;7879;48.660;9.116;2024-02-26T15:59:05;11.30;99.90
15556;DHT22;7879;48.660;9.116;2024-02-26T16:01:32;11.30;99.90
15556;DHT22;7879;48.660;9.116;2024-02-26T16:03:59;11.30;99.90
15556;DHT22;7879;48.660;9.116;2024-02-26T16:06:37;11.30;99.90
15556;DHT22;7879;48.660;9.116;2024-02-26T16:09:05;11.20;99.90